sensor_id;sensor_type;location;lat;lon;timestamp;pressure;altitude;pressure_sealevel;temperature;humidity
44765;BME280;30484;52.382;5.260;2023-03-13T00:02:01;100221.00;;;11.86;100.00
44765;BME280;30484;52.382;5.260;2023-03-13T00:04:31;100207.63;;;11.86;100.00
44765;BME280;30484;52.382;5.260;2023-03-13T00:06:59;100193.41;;;12.13;100.00
44765;BME280;30484;52.382;5.260;2023-03-13T00:09:27;100197.22;;;11.82;100.00
44765;BME280;30484;52.382;5.260;2023-03-13T00:11:56;100186.59;;;11.67;100.00
44765;BME280;30484;52.382;5.260;2023-03-13T00:14:24;100190.81;;;11.84;100.00
44765;BME280;30484;52.382;5.260;2023-03-13T00:16:52;100190.41;;;11.90;100.00
44765;BME280;30484;52.382;5.260;2023-03-13T00:19:20;100178.75;;;11.91;100.00
44765;BME280;30484;52.382;5.260;2023-03-13T00:21:50;100171.22;;;12.11;100.00
44765;BME280;30484;52.382;5.260;2023-03-13T00:24:18;100175.81;;;12.09;100.00
44765;BME280;30484;52.382;5.260;2023-03-13T00:26:46;100161.25;;;12.00;100.00
44765;BME280;30484;52.382;5.260;2023-03-13T00:29:14;100145.56;;;11.94;100.00
44765;BME280;30484;52.382;5.260;2023-03-13T00:31:42;100149.41;;;11.90;100.00
44765;BME280;30484;52.382;5.260;2023-03-13T00:34:11;100131.25;;;12.08;100.00
44765;BME280;30484;52.382;5.260;2023-03-13T00:36:39;100124.44;;;11.89;100.00
44765;BME280;30484;52.382;5.260;2023-03-13T00:39:09;100129.53;;;12.07;100.00
44765;BME280;30484;52.382;5.260;2023-03-13T00:41:37;100110.81;;;11.80;100.00
44765;BME280;30484;52.382;5.260;2023-03-13T00:44:05;100115.19;;;12.08;100.00
44765;BME280;30484;52.382;5.260;2023-03-13T00:46:34;100115.41;;;12.05;100.00
44765;BME280;30484;52.382;5.260;2023-03-13T00:49:03;100083.34;;;11.90;100.00
44765;BME280;30484;52.382;5.260;2023-03-13T00:51:32;100090.69;;;12.14;100.00
44765;BME280;30484;52.382;5.260;2023-03-13T00:54:00;100078.78;;;11.65;100.00
44765;BME280;30484;52.382;5.260;2023-03-13T00:56:31;100070.69;;;11.92;100.00
44765;BME280;30484;52.382;5.260;2023-03-13T00:58:59;100067.03;;;11.68;100.00
44765;BME280;30484;52.382;5.260;2023-03-13T01:01:30;100066.94;;;11.82;100.00
44765;BME280;30484;52.382;5.260;2023-03-13T01:04:01;100067.38;;;11.76;100.00
44765;BME280;30484;52.382;5.260;2023-03-13T01:06:32;100059.94;;;12.20;100.00
44765;BME280;30484;52.382;5.260;2023-03-13T01:09:01;100063.56;;;11.93;100.00
44765;BME280;30484;52.382;5.260;2023-03-13T01:11:34;100041.34;;;11.78;100.00
44765;BME280;30484;52.382;5.260;2023-03-13T01:14:05;100034.16;;;12.06;100.00
44765;BME280;30484;52.382;5.260;2023-03-13T01:16:35;100042.13;;;11.80;100.00
44765;BME280;30484;52.382;5.260;2023-03-13T01:19:07;100045.72;;;11.66;100.00
44765;BME280;30484;52.382;5.260;2023-03-13T01:21:39;100028.47;;;12.23;100.00
44765;BME280;30484;52.382;5.260;2023-03-13T01:24:08;100008.88;;;11.97;100.00
44765;BME280;30484;52.382;5.260;2023-03-13T01:26:38;100004.03;;;12.28;100.00
44765;BME280;30484;52.382;5.260;2023-03-13T01:29:06;99992.50;;;12.02;100.00
44765;BME280;30484;52.382;5.260;2023-03-13T01:31:35;99983.66;;;11.87;100.00
44765;BME280;30484;52.382;5.260;2023-03-13T01:34:05;99981.09;;;12.24;100.00
44765;BME280;30484;52.382;5.260;2023-03-13T01:36:35;99977.25;;;12.15;100.00
44765;BME280;30484;52.382;5.260;2023-03-13T01:39:04;99970.16;;;11.88;100.00
44765;BME280;30484;52.382;5.260;2023-03-13T01:41:33;99973.16;;;11.84;100.00
44765;BME280;30484;52.382;5.260;2023-03-13T01:44:03;99969.31;;;12.26;100.00
44765;BME280;30484;52.382;5.260;2023-03-13T01:46:31;99944.09;;;12.05;100.00
44765;BME280;30484;52.382;5.260;2023-03-13T01:49:03;99944.44;;;12.50;100.00
44765;BME280;30484;52.382;5.260;2023-03-13T01:51:36;99935.44;;;12.38;100.00
44765;BME280;30484;52.382;5.260;2023-03-13T01:54:09;99933.81;;;12.49;100.00
44765;BME280;30484;52.382;5.260;2023-03-13T01:56:44;99921.50;;;12.46;100.00
44765;BME280;30484;52.382;5.260;2023-03-13T01:59:20;99924.56;;;12.29;100.00
44765;BME280;30484;52.382;5.260;2023-03-13T02:01:51;99914.66;;;12.42;100.00
44765;BME280;30484;52.382;5.260;2023-03-13T02:04:21;99898.28;;;12.34;100.00
44765;BME280;30484;52.382;5.260;2023-03-13T02:06:54;99902.28;;;12.52;100.00
44765;BME280;30484;52.382;5.260;2023-03-13T02:09:29;99884.47;;;12.88;100.00
44765;BME280;30484;52.382;5.260;2023-03-13T02:12:03;99883.09;;;12.58;100.00
44765;BME280;30484;52.382;5.260;2023-03-13T02:14:38;99885.00;;;12.32;100.00
44765;BME280;30484;52.382;5.260;2023-03-13T02:17:10;99871.34;;;12.72;100.00
44765;BME280;30484;52.382;5.260;2023-03-13T02:19:43;99859.06;;;12.81;100.00
44765;BME280;30484;52.382;5.260;2023-03-13T02:22:21;99848.78;;;12.99;100.00
44765;BME280;30484;52.382;5.260;2023-03-13T02:24:57;99843.06;;;12.44;100.00
44765;BME280;30484;52.382;5.260;2023-03-13T02:27:30;99837.69;;;12.57;100.00
44765;BME280;30484;52.382;5.260;2023-03-13T02:29:59;99855.66;;;12.79;100.00
44765;BME280;30484;52.382;5.260;2023-03-13T02:32:30;99849.97;;;12.95;100.00
44765;BME280;30484;52.382;5.260;2023-03-13T02:35:03;99849.06;;;12.72;100.00
44765;BME280;30484;52.382;5.260;2023-03-13T02:37:35;99833.41;;;12.90;100.00
44765;BME280;30484;52.382;5.260;2023-03-13T02:40:09;99820.84;;;12.90;100.00
44765;BME280;30484;52.382;5.260;2023-03-13T02:42:43;99818.94;;;13.04;100.00
44765;BME280;30484;52.382;5.260;2023-03-13T02:45:14;99823.78;;;12.87;100.00
44765;BME280;30484;52.382;5.260;2023-03-13T02:47:43;99839.16;;;13.08;100.00
44765;BME280;30484;52.382;5.260;2023-03-13T02:50:13;99828.00;;;13.14;100.00
44765;BME280;30484;52.382;5.260;2023-03-13T02:52:44;99814.34;;;13.17;100.00
44765;BME280;30484;52.382;5.260;2023-03-13T02:55:15;99803.09;;;13.01;100.00
44765;BME280;30484;52.382;5.260;2023-03-13T02:57:46;99812.13;;;13.22;100.00
44765;BME280;30484;52.382;5.260;2023-03-13T03:00:16;99807.66;;;13.34;100.00
44765;BME280;30484;52.382;5.260;2023-03-13T03:02:45;99810.91;;;13.15;100.00
44765;BME280;30484;52.382;5.260;2023-03-13T03:05:14;99812.88;;;13.24;100.00
44765;BME280;30484;52.382;5.260;2023-03-13T03:07:42;99807.47;;;13.02;100.00
44765;BME280;30484;52.382;5.260;2023-03-13T03:10:11;99816.78;;;13.32;100.00
44765;BME280;30484;52.382;5.260;2023-03-13T03:12:44;99813.59;;;13.26;100.00
44765;BME280;30484;52.382;5.260;2023-03-13T03:15:14;99814.94;;;13.21;100.00
44765;BME280;30484;52.382;5.260;2023-03-13T03:17:42;99822.66;;;13.25;100.00
44765;BME280;30484;52.382;5.260;2023-03-13T03:20:11;99815.00;;;13.43;100.00
44765;BME280;30484;52.382;5.260;2023-03-13T03:22:39;99805.16;;;13.55;100.00
44765;BME280;30484;52.382;5.260;2023-03-13T03:25:09;99805.75;;;13.48;100.00
44765;BME280;30484;52.382;5.260;2023-03-13T03:27:37;99790.97;;;13.64;100.00
44765;BME280;30484;52.382;5.260;2023-03-13T03:30:07;99790.00;;;13.77;100.00
44765;BME280;30484;52.382;5.260;2023-03-13T03:32:38;99775.84;;;13.52;100.00
44765;BME280;30484;52.382;5.260;2023-03-13T03:35:07;99771.94;;;13.68;100.00
44765;BME280;30484;52.382;5.260;2023-03-13T03:37:36;99776.56;;;13.88;100.00
44765;BME280;30484;52.382;5.260;2023-03-13T03:40:07;99773.41;;;13.72;100.00
44765;BME280;30484;52.382;5.260;2023-03-13T03:42:37;99770.47;;;13.75;100.00
44765;BME280;30484;52.382;5.260;2023-03-13T03:45:08;99772.69;;;13.81;100.00
44765;BME280;30484;52.382;5.260;2023-03-13T03:47:38;99768.72;;;13.96;100.00
44765;BME280;30484;52.382;5.260;2023-03-13T03:50:09;99763.94;;;14.11;100.00
44765;BME280;30484;52.382;5.260;2023-03-13T03:52:38;99759.34;;;13.91;100.00
44765;BME280;30484;52.382;5.260;2023-03-13T03:55:08;99760.19;;;13.91;100.00
44765;BME280;30484;52.382;5.260;2023-03-13T03:57:37;99738.22;;;13.97;100.00
44765;BME280;30484;52.382;5.260;2023-03-13T04:00:08;99758.22;;;14.05;100.00
44765;BME280;30484;52.382;5.260;2023-03-13T04:02:43;99755.53;;;14.05;100.00
44765;BME280;30484;52.382;5.260;2023-03-13T04:05:13;99763.56;;;14.05;100.00
44765;BME280;30484;52.382;5.260;2023-03-13T04:07:42;99748.50;;;13.92;100.00
44765;BME280;30484;52.382;5.260;2023-03-13T04:10:11;99745.72;;;13.83;100.00
44765;BME280;30484;52.382;5.260;2023-03-13T04:12:40;99735.97;;;14.14;100.00
44765;BME280;30484;52.382;5.260;2023-03-13T04:15:12;99733.75;;;14.19;100.00
44765;BME280;30484;52.382;5.260;2023-03-13T04:17:41;99731.41;;;14.26;100.00
44765;BME280;30484;52.382;5.260;2023-03-13T04:20:12;99744.72;;;14.27;100.00
44765;BME280;30484;52.382;5.260;2023-03-13T04:22:41;99735.94;;;14.25;100.00
44765;BME280;30484;52.382;5.260;2023-03-13T04:25:12;99727.22;;;14.33;100.00
44765;BME280;30484;52.382;5.260;2023-03-13T04:27:41;99729.91;;;14.33;100.00
44765;BME280;30484;52.382;5.260;2023-03-13T04:30:11;99729.31;;;14.29;100.00
44765;BME280;30484;52.382;5.260;2023-03-13T04:32:43;99726.88;;;14.26;100.00
44765;BME280;30484;52.382;5.260;2023-03-13T04:35:13;99723.13;;;14.18;100.00
44765;BME280;30484;52.382;5.260;2023-03-13T04:37:42;99713.66;;;14.35;100.00
44765;BME280;30484;52.382;5.260;2023-03-13T04:40:11;99719.63;;;14.38;100.00
44765;BME280;30484;52.382;5.260;2023-03-13T04:42:41;99720.75;;;14.36;100.00
44765;BME280;30484;52.382;5.260;2023-03-13T04:45:10;99717.53;;;14.09;100.00
44765;BME280;30484;52.382;5.260;2023-03-13T04:47:39;99720.47;;;14.39;100.00
44765;BME280;30484;52.382;5.260;2023-03-13T04:50:09;99718.16;;;14.13;100.00
44765;BME280;30484;52.382;5.260;2023-03-13T04:52:41;99717.50;;;14.21;100.00
44765;BME280;30484;52.382;5.260;2023-03-13T04:55:11;99712.91;;;14.44;100.00
44765;BME280;30484;52.382;5.260;2023-03-13T04:57:40;99712.81;;;14.34;100.00
44765;BME280;30484;52.382;5.260;2023-03-13T05:00:10;99710.94;;;14.13;100.00
44765;BME280;30484;52.382;5.260;2023-03-13T05:02:39;99713.81;;;14.54;100.00
44765;BME280;30484;52.382;5.260;2023-03-13T05:05:08;99708.72;;;14.19;100.00
44765;BME280;30484;52.382;5.260;2023-03-13T05:07:36;99710.44;;;14.41;100.00
44765;BME280;30484;52.382;5.260;2023-03-13T05:10:07;99697.41;;;14.36;100.00
44765;BME280;30484;52.382;5.260;2023-03-13T05:12:36;99686.22;;;13.98;100.00
44765;BME280;30484;52.382;5.260;2023-03-13T05:15:05;99681.03;;;14.18;100.00
44765;BME280;30484;52.382;5.260;2023-03-13T05:17:33;99692.78;;;14.38;100.00
44765;BME280;30484;52.382;5.260;2023-03-13T05:20:02;99679.84;;;14.53;100.00
44765;BME280;30484;52.382;5.260;2023-03-13T05:22:33;99685.28;;;14.42;100.00
44765;BME280;30484;52.382;5.260;2023-03-13T05:25:03;99665.22;;;14.25;100.00
44765;BME280;30484;52.382;5.260;2023-03-13T05:27:33;99673.78;;;14.51;100.00
44765;BME280;30484;52.382;5.260;2023-03-13T05:30:02;99661.97;;;14.42;100.00
44765;BME280;30484;52.382;5.260;2023-03-13T05:32:31;99656.13;;;14.58;100.00
44765;BME280;30484;52.382;5.260;2023-03-13T05:34:59;99653.25;;;14.50;100.00
44765;BME280;30484;52.382;5.260;2023-03-13T05:37:28;99651.72;;;14.36;100.00
44765;BME280;30484;52.382;5.260;2023-03-13T05:39:56;99649.53;;;14.62;100.00
44765;BME280;30484;52.382;5.260;2023-03-13T05:42:25;99638.03;;;14.39;100.00
44765;BME280;30484;52.382;5.260;2023-03-13T05:44:55;99630.38;;;14.56;100.00
44765;BME280;30484;52.382;5.260;2023-03-13T05:47:23;99634.63;;;14.58;100.00
44765;BME280;30484;52.382;5.260;2023-03-13T05:49:52;99634.69;;;14.47;100.00
44765;BME280;30484;52.382;5.260;2023-03-13T05:52:21;99625.59;;;14.59;100.00
44765;BME280;30484;52.382;5.260;2023-03-13T05:54:50;99622.44;;;14.54;100.00
44765;BME280;30484;52.382;5.260;2023-03-13T05:57:18;99609.84;;;14.76;100.00
44765;BME280;30484;52.382;5.260;2023-03-13T05:59:47;99609.38;;;14.71;100.00
44765;BME280;30484;52.382;5.260;2023-03-13T06:02:18;99613.13;;;14.58;100.00
44765;BME280;30484;52.382;5.260;2023-03-13T06:04:48;99616.28;;;14.63;100.00
44765;BME280;30484;52.382;5.260;2023-03-13T06:07:16;99595.69;;;14.74;100.00
44765;BME280;30484;52.382;5.260;2023-03-13T06:09:45;99603.63;;;14.75;100.00
44765;BME280;30484;52.382;5.260;2023-03-13T06:12:14;99591.47;;;14.81;100.00
44765;BME280;30484;52.382;5.260;2023-03-13T06:14:42;99591.34;;;14.61;100.00
44765;BME280;30484;52.382;5.260;2023-03-13T06:17:11;99601.03;;;14.64;100.00
44765;BME280;30484;52.382;5.260;2023-03-13T06:19:41;99595.16;;;14.80;100.00
44765;BME280;30484;52.382;5.260;2023-03-13T06:22:10;99602.25;;;14.81;100.00
44765;BME280;30484;52.382;5.260;2023-03-13T06:24:38;99594.03;;;14.61;100.00
44765;BME280;30484;52.382;5.260;2023-03-13T06:27:07;99581.78;;;14.69;100.00
44765;BME280;30484;52.382;5.260;2023-03-13T06:29:36;99583.25;;;14.73;100.00
44765;BME280;30484;52.382;5.260;2023-03-13T06:32:06;99594.88;;;14.83;100.00
44765;BME280;30484;52.382;5.260;2023-03-13T06:34:35;99592.56;;;14.69;100.00
44765;BME280;30484;52.382;5.260;2023-03-13T06:37:07;99598.03;;;14.88;100.00
44765;BME280;30484;52.382;5.260;2023-03-13T06:39:35;99596.44;;;14.86;100.00
44765;BME280;30484;52.382;5.260;2023-03-13T06:42:05;99602.63;;;14.76;100.00
44765;BME280;30484;52.382;5.260;2023-03-13T06:44:34;99598.31;;;14.95;100.00
44765;BME280;30484;52.382;5.260;2023-03-13T06:47:02;99597.84;;;14.80;100.00
44765;BME280;30484;52.382;5.260;2023-03-13T06:49:31;99606.88;;;14.79;100.00
44765;BME280;30484;52.382;5.260;2023-03-13T06:52:00;99605.94;;;14.90;100.00
44765;BME280;30484;52.382;5.260;2023-03-13T06:54:36;99613.59;;;14.63;100.00
44765;BME280;30484;52.382;5.260;2023-03-13T06:57:05;99618.38;;;14.81;100.00
44765;BME280;30484;52.382;5.260;2023-03-13T06:59:34;99622.38;;;14.65;100.00
44765;BME280;30484;52.382;5.260;2023-03-13T07:02:03;99628.34;;;14.69;100.00
44765;BME280;30484;52.382;5.260;2023-03-13T07:04:32;99624.28;;;14.54;100.00
44765;BME280;30484;52.382;5.260;2023-03-13T07:07:01;99632.78;;;14.38;100.00
44765;BME280;30484;52.382;5.260;2023-03-13T07:09:32;99651.88;;;14.35;100.00
44765;BME280;30484;52.382;5.260;2023-03-13T07:12:04;99633.94;;;14.35;100.00
44765;BME280;30484;52.382;5.260;2023-03-13T07:14:33;99628.03;;;14.62;100.00
44765;BME280;30484;52.382;5.260;2023-03-13T07:17:01;99632.34;;;14.32;100.00
44765;BME280;30484;52.382;5.260;2023-03-13T07:19:30;99642.75;;;14.47;100.00
44765;BME280;30484;52.382;5.260;2023-03-13T07:21:59;99652.63;;;14.46;100.00
44765;BME280;30484;52.382;5.260;2023-03-13T07:24:28;99651.53;;;14.28;100.00
44765;BME280;30484;52.382;5.260;2023-03-13T07:26:59;99660.66;;;14.37;100.00
44765;BME280;30484;52.382;5.260;2023-03-13T07:29:34;99655.72;;;14.42;100.00
44765;BME280;30484;52.382;5.260;2023-03-13T07:32:03;99649.78;;;14.38;100.00
44765;BME280;30484;52.382;5.260;2023-03-13T07:34:32;99665.97;;;14.48;100.00
44765;BME280;30484;52.382;5.260;2023-03-13T07:37:01;99652.06;;;14.43;100.00
44765;BME280;30484;52.382;5.260;2023-03-13T07:39:30;99660.41;;;14.61;100.00
44765;BME280;30484;52.382;5.260;2023-03-13T07:42:00;99657.09;;;14.57;100.00
44765;BME280;30484;52.382;5.260;2023-03-13T07:44:28;99645.03;;;14.52;100.00
44765;BME280;30484;52.382;5.260;2023-03-13T07:46:59;99657.78;;;14.28;100.00
44765;BME280;30484;52.382;5.260;2023-03-13T07:49:27;99655.66;;;14.53;100.00
44765;BME280;30484;52.382;5.260;2023-03-13T07:51:56;99656.34;;;14.66;100.00
44765;BME280;30484;52.382;5.260;2023-03-13T07:54:28;99664.97;;;14.49;100.00
44765;BME280;30484;52.382;5.260;2023-03-13T07:57:00;99656.59;;;14.42;100.00
44765;BME280;30484;52.382;5.260;2023-03-13T07:59:29;99679.84;;;14.32;100.00
44765;BME280;30484;52.382;5.260;2023-03-13T08:01:58;99673.97;;;14.38;100.00
44765;BME280;30484;52.382;5.260;2023-03-13T08:04:27;99675.34;;;14.54;100.00
44765;BME280;30484;52.382;5.260;2023-03-13T08:06:56;99668.34;;;14.62;100.00
44765;BME280;30484;52.382;5.260;2023-03-13T08:09:24;99656.97;;;14.38;100.00
44765;BME280;30484;52.382;5.260;2023-03-13T08:11:53;99634.44;;;14.71;100.00
44765;BME280;30484;52.382;5.260;2023-03-13T08:14:24;99616.34;;;14.73;100.00
44765;BME280;30484;52.382;5.260;2023-03-13T08:16:53;99609.00;;;14.75;100.00
44765;BME280;30484;52.382;5.260;2023-03-13T08:19:21;99616.66;;;14.80;100.00
44765;BME280;30484;52.382;5.260;2023-03-13T08:21:51;99605.91;;;14.80;100.00
44765;BME280;30484;52.382;5.260;2023-03-13T08:24:20;99598.06;;;14.98;100.00
44765;BME280;30484;52.382;5.260;2023-03-13T08:26:49;99604.19;;;14.79;100.00
44765;BME280;30484;52.382;5.260;2023-03-13T08:29:25;99590.56;;;14.71;100.00
44765;BME280;30484;52.382;5.260;2023-03-13T08:31:54;99604.09;;;14.59;100.00
44765;BME280;30484;52.382;5.260;2023-03-13T08:34:24;99595.28;;;14.78;100.00
44765;BME280;30484;52.382;5.260;2023-03-13T08:36:53;99598.03;;;14.88;100.00
44765;BME280;30484;52.382;5.260;2023-03-13T08:39:23;99586.00;;;14.92;100.00
44765;BME280;30484;52.382;5.260;2023-03-13T08:41:52;99584.28;;;14.91;100.00
44765;BME280;30484;52.382;5.260;2023-03-13T08:44:21;99589.28;;;15.06;100.00
44765;BME280;30484;52.382;5.260;2023-03-13T08:46:51;99581.00;;;14.78;100.00
44765;BME280;30484;52.382;5.260;2023-03-13T08:49:23;99585.38;;;14.58;100.00
44765;BME280;30484;52.382;5.260;2023-03-13T08:51:53;99584.03;;;14.94;100.00
44765;BME280;30484;52.382;5.260;2023-03-13T08:54:22;99557.41;;;14.91;100.00
44765;BME280;30484;52.382;5.260;2023-03-13T08:56:51;99551.34;;;14.99;100.00
44765;BME280;30484;52.382;5.260;2023-03-13T08:59:19;99574.00;;;14.96;100.00
44765;BME280;30484;52.382;5.260;2023-03-13T09:01:52;99568.34;;;14.99;100.00
44765;BME280;30484;52.382;5.260;2023-03-13T09:04:20;99559.00;;;15.04;100.00
44765;BME280;30484;52.382;5.260;2023-03-13T09:06:49;99567.03;;;14.94;100.00
44765;BME280;30484;52.382;5.260;2023-03-13T09:09:18;99552.25;;;15.29;100.00
44765;BME280;30484;52.382;5.260;2023-03-13T09:11:48;99553.13;;;15.39;100.00
44765;BME280;30484;52.382;5.260;2023-03-13T09:14:18;99538.53;;;15.61;100.00
44765;BME280;30484;52.382;5.260;2023-03-13T09:16:47;99528.47;;;15.63;100.00
44765;BME280;30484;52.382;5.260;2023-03-13T09:19:17;99538.97;;;15.96;100.00
44765;BME280;30484;52.382;5.260;2023-03-13T09:21:45;99515.00;;;15.93;100.00
44765;BME280;30484;52.382;5.260;2023-03-13T09:24:15;99504.53;;;15.99;100.00
44765;BME280;30484;52.382;5.260;2023-03-13T09:26:49;99499.22;;;16.17;100.00
44765;BME280;30484;52.382;5.260;2023-03-13T09:29:27;99493.69;;;16.19;100.00
44765;BME280;30484;52.382;5.260;2023-03-13T09:31:56;99499.81;;;16.49;100.00
44765;BME280;30484;52.382;5.260;2023-03-13T09:34:30;99481.25;;;16.46;100.00
44765;BME280;30484;52.382;5.260;2023-03-13T09:36:59;99489.44;;;16.54;100.00
44765;BME280;30484;52.382;5.260;2023-03-13T09:39:27;99473.41;;;16.80;100.00
44765;BME280;30484;52.382;5.260;2023-03-13T09:42:04;99468.59;;;16.74;100.00
44765;BME280;30484;52.382;5.260;2023-03-13T09:44:42;99466.31;;;16.79;100.00
44765;BME280;30484;52.382;5.260;2023-03-13T09:47:16;99447.59;;;16.78;100.00
44765;BME280;30484;52.382;5.260;2023-03-13T09:49:52;99450.81;;;16.81;100.00
44765;BME280;30484;52.382;5.260;2023-03-13T09:52:24;99449.94;;;17.08;100.00
44765;BME280;30484;52.382;5.260;2023-03-13T09:54:57;99452.59;;;17.36;100.00
44765;BME280;30484;52.382;5.260;2023-03-13T09:57:32;99442.03;;;17.43;100.00
44765;BME280;30484;52.382;5.260;2023-03-13T10:00:06;99444.09;;;17.31;100.00
44765;BME280;30484;52.382;5.260;2023-03-13T10:02:44;99427.13;;;17.21;100.00
44765;BME280;30484;52.382;5.260;2023-03-13T10:05:19;99433.63;;;17.28;100.00
44765;BME280;30484;52.382;5.260;2023-03-13T10:07:48;99428.03;;;17.48;100.00
44765;BME280;30484;52.382;5.260;2023-03-13T10:10:24;99430.31;;;17.79;100.00
44765;BME280;30484;52.382;5.260;2023-03-13T10:13:13;99412.28;;;17.61;100.00
44765;BME280;30484;52.382;5.260;2023-03-13T10:15:47;99416.56;;;17.72;100.00
44765;BME280;30484;52.382;5.260;2023-03-13T10:18:21;99417.84;;;17.86;100.00
44765;BME280;30484;52.382;5.260;2023-03-13T10:20:58;99415.91;;;17.96;100.00
44765;BME280;30484;52.382;5.260;2023-03-13T10:23:37;99412.22;;;17.97;100.00
44765;BME280;30484;52.382;5.260;2023-03-13T10:26:13;99412.28;;;17.87;100.00
44765;BME280;30484;52.382;5.260;2023-03-13T10:28:47;99399.66;;;17.70;100.00
44765;BME280;30484;52.382;5.260;2023-03-13T10:31:23;99404.81;;;17.81;100.00
44765;BME280;30484;52.382;5.260;2023-03-13T10:34:04;99400.31;;;18.16;100.00
44765;BME280;30484;52.382;5.260;2023-03-13T10:36:42;99398.09;;;18.11;100.00
44765;BME280;30484;52.382;5.260;2023-03-13T10:39:17;99408.63;;;18.31;100.00
44765;BME280;30484;52.382;5.260;2023-03-13T10:41:45;99409.22;;;18.43;100.00
44765;BME280;30484;52.382;5.260;2023-03-13T10:44:21;99413.50;;;18.19;100.00
44765;BME280;30484;52.382;5.260;2023-03-13T10:46:59;99408.34;;;18.34;100.00
44765;BME280;30484;52.382;5.260;2023-03-13T10:49:31;99416.97;;;18.03;100.00
44765;BME280;30484;52.382;5.260;2023-03-13T10:52:03;99406.63;;;18.33;100.00
44765;BME280;30484;52.382;5.260;2023-03-13T10:54:34;99418.44;;;18.32;100.00
44765;BME280;30484;52.382;5.260;2023-03-13T10:57:27;99441.41;;;18.28;100.00
44765;BME280;30484;52.382;5.260;2023-03-13T10:59:57;99419.75;;;18.20;100.00
44765;BME280;30484;52.382;5.260;2023-03-13T11:02:34;99393.22;;;17.89;100.00
44765;BME280;30484;52.382;5.260;2023-03-13T11:05:29;99396.72;;;18.07;100.00
44765;BME280;30484;52.382;5.260;2023-03-13T11:08:21;99383.97;;;17.91;100.00
44765;BME280;30484;52.382;5.260;2023-03-13T11:10:58;99394.31;;;17.96;100.00
44765;BME280;30484;52.382;5.260;2023-03-13T11:13:34;99406.03;;;17.60;100.00
44765;BME280;30484;52.382;5.260;2023-03-13T11:16:18;99407.81;;;17.96;100.00
44765;BME280;30484;52.382;5.260;2023-03-13T11:22:11;99396.91;;;18.14;100.00
44765;BME280;30484;52.382;5.260;2023-03-13T11:24:48;99382.63;;;18.30;100.00
44765;BME280;30484;52.382;5.260;2023-03-13T11:27:32;99382.94;;;18.19;100.00
44765;BME280;30484;52.382;5.260;2023-03-13T11:30:15;99423.91;;;18.40;100.00
44765;BME280;30484;52.382;5.260;2023-03-13T11:32:53;99398.78;;;18.14;100.00
44765;BME280;30484;52.382;5.260;2023-03-13T11:35:36;99384.81;;;18.26;100.00
44765;BME280;30484;52.382;5.260;2023-03-13T11:38:12;99406.59;;;18.25;100.00
44765;BME280;30484;52.382;5.260;2023-03-13T11:40:56;99401.81;;;18.53;100.00
44765;BME280;30484;52.382;5.260;2023-03-13T11:43:54;99393.13;;;18.33;100.00
44765;BME280;30484;52.382;5.260;2023-03-13T11:46:44;99407.69;;;18.40;100.00
44765;BME280;30484;52.382;5.260;2023-03-13T11:49:47;99404.19;;;18.56;100.00
44765;BME280;30484;52.382;5.260;2023-03-13T11:52:39;99402.66;;;18.62;100.00
44765;BME280;30484;52.382;5.260;2023-03-13T11:55:34;99395.28;;;18.29;100.00
44765;BME280;30484;52.382;5.260;2023-03-13T11:58:35;99384.44;;;18.64;100.00
44765;BME280;30484;52.382;5.260;2023-03-13T12:01:17;99375.94;;;18.51;100.00
44765;BME280;30484;52.382;5.260;2023-03-13T12:03:56;99374.75;;;18.53;100.00
44765;BME280;30484;52.382;5.260;2023-03-13T12:06:37;99381.69;;;18.56;100.00
44765;BME280;30484;52.382;5.260;2023-03-13T12:09:23;99383.75;;;18.70;100.00
44765;BME280;30484;52.382;5.260;2023-03-13T12:12:09;99384.88;;;18.43;100.00
44765;BME280;30484;52.382;5.260;2023-03-13T12:14:50;99387.13;;;18.72;100.00
44765;BME280;30484;52.382;5.260;2023-03-13T12:17:30;99374.97;;;18.76;100.00
44765;BME280;30484;52.382;5.260;2023-03-13T12:20:17;99381.88;;;18.54;100.00
44765;BME280;30484;52.382;5.260;2023-03-13T12:22:57;99387.84;;;18.74;100.00
44765;BME280;30484;52.382;5.260;2023-03-13T12:25:42;99374.03;;;19.02;100.00
44765;BME280;30484;52.382;5.260;2023-03-13T12:28:30;99372.00;;;19.37;100.00
44765;BME280;30484;52.382;5.260;2023-03-13T12:31:12;99362.53;;;19.41;100.00
44765;BME280;30484;52.382;5.260;2023-03-13T12:33:55;99356.44;;;18.90;100.00
44765;BME280;30484;52.382;5.260;2023-03-13T12:36:32;99350.16;;;18.89;100.00
44765;BME280;30484;52.382;5.260;2023-03-13T12:39:24;99354.06;;;19.03;100.00
44765;BME280;30484;52.382;5.260;2023-03-13T12:42:08;99357.13;;;19.33;100.00
44765;BME280;30484;52.382;5.260;2023-03-13T12:44:39;99347.91;;;19.83;100.00
44765;BME280;30484;52.382;5.260;2023-03-13T12:47:30;99338.09;;;19.58;100.00
44765;BME280;30484;52.382;5.260;2023-03-13T12:50:41;99333.78;;;19.96;100.00
44765;BME280;30484;52.382;5.260;2023-03-13T12:59:47;99359.59;;;19.76;100.00
44765;BME280;30484;52.382;5.260;2023-03-13T13:02:22;99333.47;;;19.99;100.00
44765;BME280;30484;52.382;5.260;2023-03-13T13:04:56;99313.72;;;19.58;100.00
44765;BME280;30484;52.382;5.260;2023-03-13T13:07:36;99317.25;;;19.75;100.00
44765;BME280;30484;52.382;5.260;2023-03-13T13:10:20;99322.00;;;19.73;100.00
44765;BME280;30484;52.382;5.260;2023-03-13T13:13:18;99323.97;;;19.06;100.00
44765;BME280;30484;52.382;5.260;2023-03-13T13:16:02;99299.94;;;19.20;100.00
44765;BME280;30484;52.382;5.260;2023-03-13T13:18:43;99307.69;;;18.82;100.00
44765;BME280;30484;52.382;5.260;2023-03-13T13:21:22;99308.72;;;19.05;100.00
44765;BME280;30484;52.382;5.260;2023-03-13T13:23:52;99296.75;;;18.91;100.00
44765;BME280;30484;52.382;5.260;2023-03-13T13:26:48;99294.66;;;19.26;100.00